Time;durP1;ratioP1;P1;durP2;ratioP2;P2;SDS_P1;SDS_P2;PMS_P1;PMS_P2;Temp;Humidity;BMP_temperature;BMP_pressure;BME280_temperature;BME280_humidity;BME280_pressure;Samples;Min_cycle;Max_cycle;Signal;HPM_P1;HPM_P2
2022/05/28 00:01:00;;;;;;;3.08;1.05;;;;;;;9.46;100.00;101385.59;6248350;28;20061;-76
2022/05/28 00:04:04;;;;;;;2.38;0.50;;;;;;;9.52;100.00;101387.97;6249165;28;20053;-75
2022/05/28 00:07:06;;;;;;;1.98;0.60;;;;;;;9.60;100.00;101383.28;6249043;28;20042;-76
2022/05/28 00:10:13;;;;;;;2.00;0.68;;;;;;;9.63;100.00;101390.22;6248986;28;20049;-76
2022/05/28 00:13:14;;;;;;;2.20;0.60;;;;;;;9.62;100.00;101378.81;6249338;28;20049;-75
2022/05/28 00:16:16;;;;;;;1.20;0.52;;;;;;;9.61;100.00;101379.75;6248814;28;20053;-75
2022/05/28 00:19:17;;;;;;;0.45;0.10;;;;;;;9.61;100.00;101379.75;6249330;28;20049;-76
2022/05/28 00:22:19;;;;;;;2.45;0.60;;;;;;;9.64;100.00;101384.88;6248663;28;20045;-75
2022/05/28 00:25:23;;;;;;;4.07;0.65;;;;;;;9.61;100.00;101385.00;6248547;28;20053;-75
2022/05/28 00:28:24;;;;;;;1.15;0.28;;;;;;;9.57;100.00;101386.03;6249066;28;20084;-76
2022/05/28 00:31:25;;;;;;;4.15;1.50;;;;;;;9.42;100.00;101388.41;6248351;28;20053;-76
2022/05/28 00:34:27;;;;;;;7.63;0.70;;;;;;;9.35;100.00;101390.38;6223674;28;20054;-77
2022/05/28 00:37:28;;;;;;;1.00;0.45;;;;;;;9.21;100.00;101397.94;6224210;28;20082;-77
2022/05/28 00:40:31;;;;;;;0.80;0.30;;;;;;;9.04;100.00;101388.06;6224395;28;20061;-76
2022/05/28 00:43:32;;;;;;;1.25;0.60;;;;;;;8.77;100.00;101379.44;6224565;28;20057;-77
2022/05/28 00:46:34;;;;;;;0.93;0.40;;;;;;;8.41;100.00;101381.59;6223474;28;20409;-74
2022/05/28 00:49:36;;;;;;;0.93;0.50;;;;;;;8.17;100.00;101388.44;6244874;28;20045;-74
2022/05/28 00:52:40;;;;;;;1.45;0.40;;;;;;;8.11;100.00;101385.13;6247965;28;20049;-74
2022/05/28 00:55:42;;;;;;;0.17;0.17;;;;;;;8.07;100.00;101375.66;6247879;28;20604;-74
2022/05/28 00:58:44;;;;;;;3.05;0.50;;;;;;;8.19;100.00;101377.03;6248174;28;20045;-74
2022/05/28 01:01:45;;;;;;;1.55;0.40;;;;;;;8.18;100.00;101379.72;6247285;28;20432;-75
2022/05/28 01:04:56;;;;;;;1.67;0.35;;;;;;;8.30;100.00;101377.50;6247724;28;20054;-74
2022/05/28 01:08:08;;;;;;;0.70;0.50;;;;;;;8.46;100.00;101371.81;6247942;28;20663;-74
2022/05/28 01:11:22;;;;;;;0.50;0.50;;;;;;;8.53;100.00;101360.19;6247672;28;20148;-75
2022/05/28 01:14:37;;;;;;;12.40;0.95;;;;;;;8.56;100.00;101350.47;6247514;28;20068;-74
2022/05/28 01:17:42;;;;;;;1.65;0.75;;;;;;;8.58;100.00;101347.78;6247730;28;20052;-75
2022/05/28 01:20:49;;;;;;;0.90;0.63;;;;;;;8.58;100.00;101353.91;6247755;28;20046;-75
2022/05/28 01:23:55;;;;;;;3.92;0.50;;;;;;;8.68;100.00;101358.81;6247557;28;20061;-75
2022/05/28 01:27:02;;;;;;;0.50;0.43;;;;;;;8.66;100.00;101353.59;6247528;28;20733;-75
2022/05/28 01:30:07;;;;;;;1.23;0.88;;;;;;;8.64;100.00;101355.44;6246980;28;20056;-74
2022/05/28 01:33:10;;;;;;;5.88;0.77;;;;;;;8.57;100.00;101362.63;6247324;28;20049;-75
2022/05/28 01:36:15;;;;;;;1.15;0.40;;;;;;;8.57;100.00;101367.03;6246682;28;20052;-75
2022/05/28 01:39:19;;;;;;;1.10;0.65;;;;;;;8.52;100.00;101355.84;6247566;28;20489;-74
2022/05/28 01:42:23;;;;;;;4.53;0.57;;;;;;;8.53;100.00;101358.41;6246344;28;20057;-74
2022/05/28 01:45:29;;;;;;;0.40;0.40;;;;;;;8.56;100.00;101367.94;6247036;28;20050;-74
2022/05/28 01:48:31;;;;;;;1.23;1.08;;;;;;;8.60;100.00;101372.16;6247111;28;20493;-75
2022/05/28 01:51:37;;;;;;;6.43;0.80;;;;;;;8.64;100.00;101363.28;6246993;28;20049;-75
2022/05/28 01:54:43;;;;;;;2.45;1.50;;;;;;;8.71;100.00;101356.91;6246390;28;20048;-75
2022/05/28 01:57:46;;;;;;;4.68;0.70;;;;;;;8.74;100.00;101359.44;6246870;28;20049;-75
2022/05/28 02:00:48;;;;;;;0.68;0.40;;;;;;;8.78;100.00;101354.94;6245818;28;20524;-75
2022/05/28 02:03:52;;;;;;;1.00;0.45;;;;;;;8.76;100.00;101354.13;6246067;28;20053;-74
2022/05/28 02:06:54;;;;;;;1.40;0.63;;;;;;;8.71;100.00;101349.06;6246612;28;20425;-74
2022/05/28 02:10:00;;;;;;;0.82;0.50;;;;;;;8.75;100.00;101350.66;6246234;28;20056;-74
2022/05/28 02:13:13;;;;;;;0.30;0.30;;;;;;;8.79;100.00;101351.41;6246954;28;20061;-74
2022/05/28 02:16:21;;;;;;;1.65;0.50;;;;;;;8.82;100.00;101351.31;6246221;28;20050;-74
2022/05/28 02:19:27;;;;;;;2.53;0.38;;;;;;;8.82;100.00;101351.31;6246680;28;20100;-74
2022/05/28 02:22:39;;;;;;;2.25;0.50;;;;;;;8.78;100.00;101352.31;6243090;28;20064;-74
2022/05/28 02:25:49;;;;;;;1.13;0.52;;;;;;;8.75;100.00;101347.19;6246192;28;20056;-75
2022/05/28 02:28:53;;;;;;;0.98;0.60;;;;;;;8.74;100.00;101341.09;6246749;28;20060;-74
2022/05/28 02:31:54;;;;;;;1.35;0.52;;;;;;;8.73;100.00;101349.03;6245401;28;20053;-74
2022/05/28 02:34:55;;;;;;;2.58;1.15;;;;;;;8.74;100.00;101341.09;6245964;28;20463;-74
2022/05/28 02:37:57;;;;;;;0.35;0.20;;;;;;;8.72;100.00;101345.53;6246330;28;20045;-74
2022/05/28 02:40:59;;;;;;;0.50;0.50;;;;;;;8.73;100.00;101344.63;6246429;28;20054;-73
2022/05/28 02:44:02;;;;;;;5.00;1.02;;;;;;;8.68;100.00;101336.09;6246004;28;20041;-74
2022/05/28 02:47:05;;;;;;;0.55;0.50;;;;;;;8.69;100.00;101339.56;6246274;28;20510;-73
2022/05/28 02:50:08;;;;;;;2.10;1.05;;;;;;;8.66;100.00;101335.25;6246006;28;20046;-74
2022/05/28 02:53:11;;;;;;;0.75;0.75;;;;;;;8.70;100.00;101343.88;6246154;28;20059;-73
2022/05/28 02:56:13;;;;;;;3.17;1.00;;;;;;;8.69;100.00;101347.41;6245818;28;20081;-74
2022/05/28 02:59:16;;;;;;;3.42;0.35;;;;;;;8.67;100.00;101342.22;6246135;28;20057;-73
2022/05/28 03:02:17;;;;;;;7.72;1.85;;;;;;;8.63;100.00;101344.09;6245619;28;20412;-74
2022/05/28 03:05:21;;;;;;;0.63;0.47;;;;;;;8.61;100.00;101339.81;6245919;28;20046;-74
2022/05/28 03:08:22;;;;;;;1.35;0.50;;;;;;;8.57;100.00;101346.91;6249606;28;20049;-74
2022/05/28 03:11:24;;;;;;;0.50;0.45;;;;;;;8.55;100.00;101337.44;6250382;28;20049;-74
2022/05/28 03:14:26;;;;;;;1.67;0.47;;;;;;;8.54;100.00;101346.16;6250519;28;20053;-73
2022/05/28 03:17:27;;;;;;;2.00;0.77;;;;;;;8.51;100.00;101338.44;6250594;28;20041;-73
2022/05/28 03:20:30;;;;;;;0.50;0.50;;;;;;;8.51;100.00;101341.06;6250200;28;20049;-74
2022/05/28 03:23:31;;;;;;;1.70;0.73;;;;;;;8.50;100.00;101339.34;6250479;28;20078;-73
2022/05/28 03:26:33;;;;;;;1.75;0.68;;;;;;;8.50;100.00;101336.75;6249834;28;20049;-74
2022/05/28 03:29:35;;;;;;;1.52;0.55;;;;;;;8.49;100.00;101348.94;6250364;28;20513;-73
2022/05/28 03:32:37;;;;;;;1.45;0.90;;;;;;;8.48;100.00;101339.38;6249788;28;20045;-73
2022/05/28 03:35:40;;;;;;;1.25;0.57;;;;;;;8.49;100.00;101353.34;6249870;28;20050;-74
2022/05/28 03:38:41;;;;;;;0.68;0.40;;;;;;;8.51;100.00;101356.78;6249967;28;20045;-73
2022/05/28 03:41:42;;;;;;;0.82;0.43;;;;;;;8.52;100.00;101354.09;6249895;28;20428;-74
2022/05/28 03:44:45;;;;;;;2.50;0.80;;;;;;;8.52;100.00;101356.72;6249435;28;20056;-74
2022/05/28 03:47:46;;;;;;;1.95;0.60;;;;;;;8.49;100.00;101367.28;6250174;28;20053;-74
2022/05/28 03:50:48;;;;;;;0.45;0.43;;;;;;;8.51;100.00;101362.88;6249571;28;20057;-73
2022/05/28 03:53:50;;;;;;;2.90;0.70;;;;;;;8.48;100.00;101373.44;6249362;28;20049;-74
2022/05/28 03:56:56;;;;;;;2.95;0.63;;;;;;;8.51;100.00;101369.88;6249791;28;20052;-74
2022/05/28 03:59:59;;;;;;;4.00;1.48;;;;;;;8.53;100.00;101363.66;6248481;28;20417;-74
2022/05/28 04:03:01;;;;;;;3.40;0.88;;;;;;;8.54;100.00;101368.00;6249050;28;20038;-74
2022/05/28 04:06:02;;;;;;;3.05;0.60;;;;;;;8.56;100.00;101374.03;6248982;28;20045;-74
2022/05/28 04:09:05;;;;;;;3.83;0.82;;;;;;;8.59;100.00;101375.72;6249226;28;20175;-74
2022/05/28 04:12:07;;;;;;;1.08;0.55;;;;;;;8.60;100.00;101373.03;6249257;28;20045;-74
2022/05/28 04:15:11;;;;;;;4.10;0.65;;;;;;;8.63;100.00;101377.31;6249000;28;20064;-74
2022/05/28 04:18:12;;;;;;;2.97;0.73;;;;;;;8.62;100.00;101372.97;6248712;28;20042;-74
2022/05/28 04:21:13;;;;;;;1.65;0.50;;;;;;;8.59;100.00;101366.06;6248762;28;20421;-74
2022/05/28 04:24:15;;;;;;;1.50;1.00;;;;;;;8.61;100.00;101372.09;6248649;28;20504;-74
2022/05/28 04:27:16;;;;;;;0.82;0.40;;;;;;;8.60;100.00;101362.53;6248981;28;20523;-75
2022/05/28 04:30:19;;;;;;;1.58;0.50;;;;;;;8.61;100.00;101374.72;6248265;28;20049;-74
2022/05/28 04:33:21;;;;;;;2.85;0.70;;;;;;;8.66;100.00;101390.28;6248818;28;20132;-74
2022/05/28 04:36:22;;;;;;;2.83;0.63;;;;;;;8.66;100.00;101379.81;6248428;28;20061;-74
2022/05/28 04:39:24;;;;;;;3.67;1.10;;;;;;;8.68;100.00;101369.28;6248647;28;20042;-74
2022/05/28 04:42:25;;;;;;;5.88;0.85;;;;;;;8.70;100.00;101384.03;6248423;28;20061;-74
2022/05/28 04:45:28;;;;;;;2.13;0.95;;;;;;;8.74;100.00;101390.88;6248133;28;20437;-75
2022/05/28 04:48:31;;;;;;;0.75;0.55;;;;;;;8.83;100.00;101387.06;6248773;28;20045;-74
2022/05/28 04:51:32;;;;;;;7.80;1.33;;;;;;;8.89;100.00;101392.09;6247722;28;20428;-74
2022/05/28 04:54:34;;;;;;;3.20;0.68;;;;;;;8.94;100.00;101384.06;6248192;28;20049;-74
2022/05/28 04:57:35;;;;;;;6.72;0.82;;;;;;;9.03;100.00;101397.69;6248149;28;20056;-73
2022/05/28 05:00:38;;;;;;;3.75;0.70;;;;;;;9.13;100.00;101395.59;6247919;28;20049;-73
2022/05/28 05:03:39;;;;;;;8.27;0.77;;;;;;;9.12;100.00;101394.72;6248279;28;20071;-73
2022/05/28 05:06:41;;;;;;;1.65;0.85;;;;;;;9.15;100.00;101406.88;6247421;28;20493;-73
2022/05/28 05:09:42;;;;;;;1.50;0.75;;;;;;;9.12;100.00;101402.59;6247900;28;20058;-73
2022/05/28 05:12:43;;;;;;;2.72;1.73;;;;;;;9.23;100.00;101404.84;6247975;28;20049;-73
2022/05/28 05:15:46;;;;;;;1.23;0.60;;;;;;;9.26;100.00;101398.59;6247521;28;20057;-74
2022/05/28 05:18:47;;;;;;;1.67;0.82;;;;;;;9.36;100.00;101402.63;6247659;28;20463;-74
2022/05/28 05:21:48;;;;;;;5.70;0.70;;;;;;;9.39;100.00;101403.34;6247326;28;20397;-73
2022/05/28 05:24:52;;;;;;;2.55;0.60;;;;;;;9.43;100.00;101405.84;6247303;28;20049;-74
2022/05/28 05:27:53;;;;;;;2.00;0.77;;;;;;;9.50;100.00;101415.22;6247810;28;20068;-74
2022/05/28 05:30:56;;;;;;;7.05;0.93;;;;;;;9.48;100.00;101422.25;6246122;28;20052;-75
2022/05/28 05:33:57;;;;;;;0.85;0.65;;;;;;;9.49;100.00;101421.34;6247247;28;20485;-75
2022/05/28 05:36:59;;;;;;;3.00;0.80;;;;;;;9.44;100.00;101407.56;6247455;28;20053;-76
2022/05/28 05:40:00;;;;;;;10.68;0.93;;;;;;;9.37;100.00;101423.53;6246935;28;20054;-75
2022/05/28 05:43:02;;;;;;;1.45;0.63;;;;;;;9.51;100.00;101436.13;6247494;28;20057;-76
2022/05/28 05:46:05;;;;;;;2.85;0.52;;;;;;;9.55;100.00;101429.84;6246839;28;20046;-75
2022/05/28 05:49:06;;;;;;;3.45;0.77;;;;;;;9.58;100.00;101418.38;6247263;28;20056;-74
2022/05/28 05:52:08;;;;;;;1.65;0.50;;;;;;;9.57;100.00;101422.75;6246671;28;20428;-75
2022/05/28 05:55:09;;;;;;;3.80;0.57;;;;;;;9.62;100.00;101428.69;6246483;28;20424;-76
2022/05/28 05:58:11;;;;;;;6.30;0.90;;;;;;;9.67;100.00;101433.75;6246899;28;20045;-75
2022/05/28 06:01:14;;;;;;;1.33;0.57;;;;;;;9.68;100.00;101430.25;6246059;28;20048;-75
2022/05/28 06:04:15;;;;;;;2.08;0.52;;;;;;;9.69;100.00;101438.97;6246107;28;20615;-75
2022/05/28 06:07:17;;;;;;;4.22;1.15;;;;;;;9.79;100.00;101435.06;6246970;28;20049;-75
2022/05/28 06:10:18;;;;;;;5.22;0.88;;;;;;;9.79;100.00;101433.28;6246457;28;20056;-75
2022/05/28 06:13:19;;;;;;;7.28;0.93;;;;;;;9.78;100.00;101438.63;6246645;28;20441;-75
2022/05/28 06:16:22;;;;;;;4.05;0.90;;;;;;;9.78;100.00;101439.47;6246325;28;20525;-75
2022/05/28 06:19:24;;;;;;;1.27;0.52;;;;;;;9.85;100.00;101445.31;6246466;28;20052;-75
2022/05/28 06:22:25;;;;;;;1.10;0.45;;;;;;;9.88;100.00;101442.59;6246267;28;20049;-76
2022/05/28 06:25:27;;;;;;;4.43;1.25;;;;;;;9.97;100.00;101450.09;6246260;28;20053;-75
2022/05/28 06:28:28;;;;;;;5.22;0.60;;;;;;;10.04;100.00;101438.44;6246752;28;20054;-77
2022/05/28 06:31:31;;;;;;;1.13;0.80;;;;;;;10.01;100.00;101440.34;6245919;28;20045;-74
2022/05/28 06:34:32;;;;;;;5.90;0.60;;;;;;;10.00;100.00;101436.84;6246296;28;20053;-76
2022/05/28 06:37:33;;;;;;;1.05;0.43;;;;;;;10.03;100.00;101439.34;6246498;28;20052;-75
2022/05/28 06:40:35;;;;;;;7.65;1.25;;;;;;;10.02;100.00;101435.00;6247443;28;20052;-75
2022/05/28 06:43:37;;;;;;;1.45;0.45;;;;;;;10.13;100.00;101431.97;6251477;28;20049;-75
2022/05/28 06:46:39;;;;;;;3.13;0.80;;;;;;;10.20;100.00;101440.44;6251246;28;20096;-75
2022/05/28 06:49:41;;;;;;;3.30;0.77;;;;;;;10.28;100.00;101434.00;6251337;28;20489;-76
2022/05/28 06:52:42;;;;;;;2.13;0.73;;;;;;;10.41;100.00;101431.72;6251038;28;20049;-75
2022/05/28 06:55:43;;;;;;;4.95;0.73;;;;;;;10.61;100.00;101444.00;6250975;28;20076;-76
2022/05/28 06:58:45;;;;;;;1.92;0.57;;;;;;;10.68;100.00;101447.25;6250859;28;20049;-75
2022/05/28 07:01:48;;;;;;;1.27;0.68;;;;;;;10.68;100.00;101437.59;6250772;28;20064;-75
2022/05/28 07:04:49;;;;;;;5.28;2.33;;;;;;;10.74;100.00;101445.22;6250457;28;20405;-75
2022/05/28 07:07:50;;;;;;;4.88;0.90;;;;;;;10.79;100.00;101432.72;6251001;28;20045;-76
2022/05/28 07:10:54;;;;;;;9.75;1.63;;;;;;;10.88;100.00;101447.25;6250830;28;20057;-76
2022/05/28 07:13:56;;;;;;;4.15;1.30;;;;;;;10.82;100.00;101447.50;6250289;28;20060;-76
2022/05/28 07:16:58;;;;;;;5.50;0.60;;;;;;;10.79;100.00;101447.63;6250764;28;20060;-76
2022/05/28 07:20:00;;;;;;;4.45;1.17;;;;;;;10.77;100.00;101446.88;6247997;28;20049;-75
2022/05/28 07:23:07;;;;;;;4.10;0.90;;;;;;;10.80;100.00;101446.72;6250331;28;20052;-76
2022/05/28 07:26:11;;;;;;;1.98;0.88;;;;;;;10.78;100.00;101454.66;6257329;28;20427;-75
2022/05/28 07:29:12;;;;;;;4.13;1.20;;;;;;;10.92;100.00;101457.56;6263091;28;20045;-76
2022/05/28 07:32:15;;;;;;;0.82;0.68;;;;;;;11.01;100.00;101456.31;6249827;28;20060;-76
2022/05/28 07:35:16;;;;;;;1.77;0.60;;;;;;;11.07;100.00;101463.06;6250100;28;20049;-75
2022/05/28 07:38:17;;;;;;;1.30;0.88;;;;;;;11.06;100.00;101462.22;6249893;28;20053;-75
2022/05/28 07:41:21;;;;;;;2.65;1.48;;;;;;;11.03;100.00;101464.97;6249957;28;20682;-75
2022/05/28 07:44:23;;;;;;;2.38;0.77;;;;;;;11.07;100.00;101463.06;6249771;28;20053;-75
2022/05/28 07:47:25;;;;;;;2.30;0.88;;;;;;;11.21;100.00;101462.47;6250258;28;20045;-75
2022/05/28 07:50:27;;;;;;;4.65;0.55;;;;;;;11.30;100.00;101457.63;6249775;28;20046;-75
2022/05/28 07:53:28;;;;;;;1.77;0.63;;;;;;;11.40;100.00;101451.06;6249149;28;20075;-75
2022/05/28 07:56:29;;;;;;;1.40;0.50;;;;;;;11.41;100.00;101452.75;6249661;28;20045;-76
2022/05/28 07:59:31;;;;;;;3.03;1.45;;;;;;;11.38;100.00;101446.78;6243693;28;20050;-76
2022/05/28 08:02:34;;;;;;;4.43;0.80;;;;;;;11.30;100.00;101456.78;6240190;28;20057;-75
2022/05/28 08:05:35;;;;;;;4.35;0.90;;;;;;;11.28;100.00;101458.66;6248841;28;20056;-74
2022/05/28 08:08:37;;;;;;;4.78;0.60;;;;;;;11.39;100.00;101445.84;6249392;28;20120;-75
2022/05/28 08:11:39;;;;;;;0.93;0.68;;;;;;;11.41;100.00;101449.28;6248949;28;20413;-76
2022/05/28 08:14:40;;;;;;;3.10;0.80;;;;;;;11.39;100.00;101445.84;6249315;28;20046;-75
2022/05/28 08:17:43;;;;;;;1.40;0.70;;;;;;;11.46;100.00;101447.28;6246577;28;20053;-76
2022/05/28 08:24:05;;;;;;;0.65;0.45;;;;;;;11.60;100.00;101451.91;6238665;28;20081;-75
2022/05/28 08:27:07;;;;;;;1.20;0.50;;;;;;;11.81;100.00;101450.03;6246991;28;20432;-75
2022/05/28 08:30:09;;;;;;;1.73;0.60;;;;;;;11.78;99.40;101445.78;6243887;28;20057;-76
2022/05/28 08:33:14;;;;;;;1.73;0.60;;;;;;;11.86;97.81;101448.94;6242322;28;20045;-77
2022/05/28 08:36:16;;;;;;;7.10;0.73;;;;;;;11.90;100.00;101453.16;6242727;28;20051;-76
2022/05/28 08:39:18;;;;;;;3.53;0.60;;;;;;;11.91;100.00;101460.13;6249497;28;20050;-73
2022/05/28 08:42:22;;;;;;;1.83;0.60;;;;;;;11.77;100.00;101483.59;6247727;28;20045;-74
2022/05/28 08:45:24;;;;;;;3.00;0.52;;;;;;;11.57;100.00;101483.63;6248500;28;20056;-76
2022/05/28 08:48:34;;;;;;;2.03;1.88;;;;;;;11.17;100.00;101482.78;6249285;28;20052;-75
2022/05/28 08:51:39;;;;;;;3.88;0.80;;;;;;;11.05;100.00;101493.84;6248091;28;20516;-73
2022/05/28 08:54:56;;;;;;;2.38;0.57;;;;;;;10.93;100.00;101482.06;6248286;28;20046;-76
2022/05/28 08:58:00;;;;;;;4.57;1.13;;;;;;;10.91;100.00;101494.44;6247765;28;20037;-76
2022/05/28 09:01:06;;;;;;;3.75;1.10;;;;;;;10.97;100.00;101502.06;6247905;28;20049;-73
2022/05/28 09:04:14;;;;;;;1.42;0.77;;;;;;;10.86;100.00;101499.06;6247587;28;20081;-77
2022/05/28 09:07:17;;;;;;;6.78;2.10;;;;;;;10.60;100.00;101505.41;6248206;28;20049;-76
2022/05/28 09:10:18;;;;;;;1.95;0.85;;;;;;;10.35;100.00;101487.97;6248075;28;20107;-77
2022/05/28 09:13:27;;;;;;;7.13;1.10;;;;;;;10.14;100.00;101488.84;6248223;28;20057;-77
2022/05/28 09:16:30;;;;;;;1.85;0.70;;;;;;;10.14;100.00;101484.44;6247585;28;20077;-75
2022/05/28 09:19:41;;;;;;;7.00;1.23;;;;;;;10.33;100.00;101488.97;6248071;28;20046;-76
2022/05/28 09:22:43;;;;;;;7.47;0.95;;;;;;;10.63;100.00;101484.25;6247620;28;20053;-76
2022/05/28 09:25:49;;;;;;;3.97;1.33;;;;;;;10.91;100.00;101479.53;6246739;28;20050;-76
2022/05/28 09:29:03;;;;;;;5.05;1.30;;;;;;;11.08;100.00;101468.28;6247224;28;20042;-77
2022/05/28 09:32:13;;;;;;;1.35;0.80;;;;;;;11.27;100.00;101478.00;6247652;28;20049;-77
2022/05/28 09:35:22;;;;;;;6.95;0.75;;;;;;;11.46;100.00;101460.44;6247512;28;20050;-76
2022/05/28 09:38:31;;;;;;;0.75;0.60;;;;;;;11.50;100.00;101469.06;6247532;28;20493;-75
2022/05/28 09:41:47;;;;;;;2.45;0.93;;;;;;;11.53;100.00;101464.47;6246818;28;20067;-75
2022/05/28 09:45:02;;;;;;;2.83;0.60;;;;;;;11.57;100.00;101463.41;6246921;28;20428;-75
2022/05/28 09:48:04;;;;;;;7.72;1.58;;;;;;;11.74;100.00;101472.34;6247450;28;20052;-75
2022/05/28 09:51:21;;;;;;;3.17;1.00;;;;;;;11.85;100.00;101477.97;6246863;28;20049;-76
2022/05/28 09:54:27;;;;;;;4.30;0.75;;;;;;;11.92;100.00;101485.53;6246659;28;20435;-75
2022/05/28 09:57:31;;;;;;;0.40;0.40;;;;;;;11.79;100.00;101475.59;6246619;28;20060;-75
2022/05/28 10:00:33;;;;;;;1.75;0.95;;;;;;;11.62;100.00;101484.28;6246344;28;20050;-75
2022/05/28 10:07:01;;;;;;;4.00;1.05;;;;;;;11.33;100.00;101475.94;6246497;28;20057;-75
2022/05/28 10:10:14;;;;;;;4.22;0.90;;;;;;;11.23;100.00;101486.94;6246321;28;20053;-74
2022/05/28 10:13:17;;;;;;;3.90;0.90;;;;;;;11.24;100.00;101488.63;6247121;28;20056;-75
2022/05/28 10:16:21;;;;;;;2.50;0.90;;;;;;;11.22;100.00;101488.72;6245655;28;20057;-76
2022/05/28 10:19:29;;;;;;;3.67;0.65;;;;;;;11.14;100.00;101491.69;6246840;28;20056;-75
2022/05/28 10:22:32;;;;;;;5.05;0.60;;;;;;;11.16;100.00;101483.72;6246317;28;20050;-75
2022/05/28 10:25:38;;;;;;;4.03;0.68;;;;;;;11.32;100.00;101473.38;6245971;28;20046;-75
2022/05/28 10:28:47;;;;;;;1.98;0.95;;;;;;;11.62;100.00;101465.84;6246466;28;20128;-75
2022/05/28 10:31:50;;;;;;;3.97;0.95;;;;;;;12.00;100.00;101471.16;6246833;28;20060;-77
2022/05/28 10:35:01;;;;;;;5.80;0.80;;;;;;;12.37;100.00;101468.44;6246561;28;20042;-77
2022/05/28 10:38:15;;;;;;;2.67;0.88;;;;;;;12.68;99.63;101462.47;6248365;28;20054;-77
2022/05/28 10:41:21;;;;;;;1.95;0.88;;;;;;;13.03;92.34;101465.06;6246352;28;20049;-76
2022/05/28 10:44:23;;;;;;;2.08;0.70;;;;;;;13.11;83.57;101465.53;6246179;28;20574;-77
2022/05/28 10:47:41;;;;;;;0.35;0.20;;;;;;;13.39;84.28;101458.81;6247104;28;20130;-76
2022/05/28 10:50:48;;;;;;;1.58;0.70;;;;;;;13.68;80.09;101467.81;6247124;28;20042;-77
2022/05/28 10:54:13;;;;;;;4.13;0.70;;;;;;;13.65;79.00;101460.91;6241234;28;20416;-76
2022/05/28 10:57:29;;;;;;;4.35;1.13;;;;;;;13.44;84.64;101476.16;6246465;28;20046;-75
2022/05/28 11:00:43;;;;;;;2.03;1.05;;;;;;;12.99;91.18;101492.59;6245654;28;20046;-74
2022/05/28 11:04:17;;;;;;;0.73;0.35;;;;;;;12.52;87.46;101492.31;6243652;28;20060;-77
2022/05/28 11:07:42;;;;;;;1.50;0.50;;;;;;;12.89;90.44;101494.81;6242900;28;20045;-74
2022/05/28 11:11:03;;;;;;;2.78;0.45;;;;;;;13.19;86.00;101494.16;6246190;28;20050;-76
2022/05/28 11:14:17;;;;;;;1.25;0.47;;;;;;;13.22;80.32;101483.50;6246031;28;20057;-74
2022/05/28 11:17:29;;;;;;;1.52;0.50;;;;;;;13.63;82.42;101475.16;6246031;28;20420;-75
2022/05/28 11:20:41;;;;;;;3.50;1.52;;;;;;;13.94;72.37;101467.25;6245755;28;20048;-75
2022/05/28 11:24:03;;;;;;;5.30;0.60;;;;;;;14.30;70.01;101473.16;6245759;28;20056;-76
2022/05/28 11:27:19;;;;;;;2.88;0.70;;;;;;;14.53;67.94;101467.41;6244881;28;20489;-77
2022/05/28 11:30:23;;;;;;;2.78;0.98;;;;;;;14.47;62.56;101479.19;6250494;28;20042;-74
2022/05/28 11:33:31;;;;;;;9.05;1.08;;;;;;;14.30;68.27;101471.34;6250321;28;20049;-74
2022/05/28 11:36:38;;;;;;;1.42;0.52;;;;;;;14.36;67.06;101476.31;6245111;28;20045;-78
2022/05/28 11:39:43;;;;;;;4.72;0.75;;;;;;;14.71;69.43;101474.28;6249905;28;20057;-74
2022/05/28 11:42:51;;;;;;;5.85;0.73;;;;;;;15.28;66.00;101462.94;6249806;28;20057;-76
2022/05/28 11:45:59;;;;;;;4.25;0.82;;;;;;;15.60;67.55;101458.28;6254907;28;20045;-75
2022/05/28 11:52:34;;;;;;;3.38;0.75;;;;;;;15.89;62.56;101448.47;6247584;28;20092;-77
2022/05/28 11:55:39;;;;;;;4.03;0.82;;;;;;;15.83;61.03;101443.59;6262337;28;20049;-76
2022/05/28 11:58:47;;;;;;;2.03;0.45;;;;;;;16.35;62.41;101439.31;6252798;28;20049;-75
2022/05/28 12:01:53;;;;;;;2.00;0.68;;;;;;;16.39;60.68;101436.34;6249820;28;20057;-76
2022/05/28 12:04:54;;;;;;;1.15;0.50;;;;;;;15.37;66.19;101433.22;6249525;28;20060;-77
2022/05/28 12:08:02;;;;;;;2.35;0.77;;;;;;;15.23;69.06;101439.38;6249812;28;20056;-75
2022/05/28 12:11:06;;;;;;;0.70;0.50;;;;;;;15.75;64.35;101418.53;6249200;28;20136;-76
2022/05/28 12:14:26;;;;;;;3.35;1.05;;;;;;;15.98;56.98;101426.69;6249430;28;20049;-76
2022/05/28 12:17:29;;;;;;;0.60;0.60;;;;;;;15.54;57.32;101433.97;6249989;28;20588;-77
2022/05/28 12:20:33;;;;;;;0.80;0.70;;;;;;;15.66;55.40;101438.50;6249149;28;20053;-78
2022/05/28 12:23:38;;;;;;;2.10;0.55;;;;;;;15.69;54.18;101430.38;6249459;28;20056;-77
2022/05/28 12:26:49;;;;;;;8.35;0.88;;;;;;;15.32;55.42;101427.38;6248999;28;20064;-77
2022/05/28 12:30:00;;;;;;;1.95;0.60;;;;;;;15.92;54.34;101434.19;6248999;28;20061;-76
2022/05/28 12:33:02;;;;;;;3.03;1.20;;;;;;;16.31;53.80;101425.44;6250679;28;20053;-77
2022/05/28 12:36:13;;;;;;;0.55;0.43;;;;;;;16.36;55.06;101411.88;6248800;28;20049;-77
2022/05/28 12:39:37;;;;;;;2.83;0.70;;;;;;;15.53;56.33;101419.84;6249187;28;20045;-76
2022/05/28 12:42:39;;;;;;;3.53;0.80;;;;;;;14.88;56.58;101460.03;6249568;28;20053;-77
2022/05/28 12:45:44;;;;;;;3.05;0.90;;;;;;;14.44;58.53;101436.19;6248331;28;20053;-76
2022/05/28 12:48:48;;;;;;;6.28;1.10;;;;;;;14.18;58.65;101432.44;6248603;28;20049;-76
2022/05/28 12:52:10;;;;;;;2.47;0.98;;;;;;;14.32;56.65;101432.47;6248239;28;20053;-76
2022/05/28 12:55:29;;;;;;;3.72;0.50;;;;;;;15.22;49.34;101435.03;6247803;28;20045;-74
2022/05/28 12:58:32;;;;;;;4.07;0.80;;;;;;;15.86;48.47;101424.84;6247861;28;20053;-75
2022/05/28 13:01:37;;;;;;;4.20;0.70;;;;;;;15.40;47.13;101438.34;6246735;28;20045;-75
2022/05/28 13:04:42;;;;;;;2.50;0.43;;;;;;;14.94;50.39;101441.16;6248100;28;20057;-75
2022/05/28 13:07:51;;;;;;;9.50;0.43;;;;;;;14.52;52.65;101441.91;6240151;28;20050;-74
2022/05/28 13:10:55;;;;;;;5.97;0.80;;;;;;;14.33;55.21;101438.63;6247914;28;20064;-74
2022/05/28 13:14:30;;;;;;;3.63;1.08;;;;;;;14.65;55.67;101440.25;6247194;28;20179;-74
2022/05/28 13:18:06;;;;;;;1.85;0.77;;;;;;;15.06;54.56;101436.06;6247699;28;20052;-75
2022/05/28 13:21:20;;;;;;;2.80;0.75;;;;;;;14.82;54.53;101436.59;6247528;28;20045;-75
2022/05/28 13:24:50;;;;;;;3.67;1.20;;;;;;;14.93;55.58;101433.31;6247103;28;20049;-75
2022/05/28 13:28:15;;;;;;;4.70;0.65;;;;;;;14.70;56.44;101437.34;6242527;28;20053;-75
2022/05/28 13:31:19;;;;;;;2.92;0.82;;;;;;;14.80;58.09;101438.47;6246125;28;20049;-74
2022/05/28 13:34:24;;;;;;;4.03;0.93;;;;;;;15.59;52.93;101445.13;6244831;28;20049;-79
2022/05/28 13:37:26;;;;;;;2.70;0.70;;;;;;;15.77;49.98;101429.91;6246670;28;20050;-75
2022/05/28 13:40:31;;;;;;;4.57;0.65;;;;;;;15.38;51.97;101440.22;6246611;28;20052;-74
2022/05/28 13:43:36;;;;;;;3.28;0.57;;;;;;;14.64;53.69;101438.56;6247313;28;20053;-74
2022/05/28 13:46:39;;;;;;;3.33;0.80;;;;;;;14.33;55.72;101443.91;6245792;28;20045;-75
2022/05/28 13:49:48;;;;;;;2.08;0.68;;;;;;;14.15;56.28;101445.81;6244693;28;20048;-75
2022/05/28 13:52:50;;;;;;;1.55;0.65;;;;;;;14.49;57.92;101463.28;6246939;28;20050;-74
2022/05/28 13:55:58;;;;;;;4.95;1.02;;;;;;;14.79;59.78;101447.38;6246598;28;20060;-75
2022/05/28 13:59:00;;;;;;;6.97;0.60;;;;;;;14.80;55.34;101445.56;6247173;28;20428;-75
2022/05/28 14:02:02;;;;;;;2.90;1.05;;;;;;;14.42;54.22;101444.22;6246440;28;20460;-76
2022/05/28 14:05:06;;;;;;;1.52;0.52;;;;;;;14.36;53.78;101444.59;6246420;28;20053;-77
2022/05/28 14:08:12;;;;;;;0.63;0.30;;;;;;;15.08;53.70;101447.41;6246945;28;20049;-73
2022/05/28 14:11:20;;;;;;;4.03;0.95;;;;;;;15.90;50.22;101444.91;6246535;28;20057;-74
2022/05/28 14:14:25;;;;;;;3.65;0.65;;;;;;;15.62;49.77;101424.56;6246335;28;20416;-73
2022/05/28 14:17:29;;;;;;;2.28;0.45;;;;;;;15.20;51.24;101439.56;6246757;28;20084;-73
2022/05/28 14:20:34;;;;;;;0.50;0.45;;;;;;;15.01;52.60;101432.84;6246044;28;20042;-75
2022/05/28 14:23:41;;;;;;;2.25;1.05;;;;;;;14.79;53.88;101436.78;6246970;28;20053;-75
2022/05/28 14:26:43;;;;;;;3.45;0.52;;;;;;;14.89;51.89;101431.78;6246150;28;20069;-75